createdAt,value
2019-03-30T00:00:47.707Z,8.70
2019-03-30T00:03:17.320Z,8.50
2019-03-30T00:05:47.211Z,8.57
2019-03-30T00:08:16.607Z,8.27
2019-03-30T00:10:46.222Z,9.03
2019-03-30T00:13:15.809Z,9.00
2019-03-30T00:15:45.262Z,7.97
2019-03-30T00:18:14.825Z,8.87
2019-03-30T00:20:44.363Z,8.63
2019-03-30T00:23:16.455Z,8.20
2019-03-30T00:25:45.794Z,8.70
2019-03-30T00:28:15.279Z,8.93
2019-03-30T00:30:48.352Z,9.83
2019-03-30T00:33:17.744Z,8.60
2019-03-30T00:35:47.270Z,8.90
2019-03-30T00:38:16.697Z,8.80
2019-03-30T00:40:46.108Z,8.90
2019-03-30T00:43:15.618Z,9.17
2019-03-30T00:45:45.044Z,8.60
2019-03-30T00:48:14.467Z,10.17
2019-03-30T00:50:43.977Z,10.83
2019-03-30T00:53:13.399Z,10.00
2019-03-30T00:55:42.835Z,11.07
2019-03-30T00:58:12.239Z,9.87
2019-03-30T01:00:41.631Z,11.17
2019-03-30T01:03:11.038Z,10.43
2019-03-30T01:05:40.441Z,9.23
2019-03-30T01:08:09.776Z,10.08
2019-03-30T01:10:39.207Z,9.03
2019-03-30T01:13:08.867Z,10.07
2019-03-30T01:15:38.586Z,9.13
2019-03-30T01:18:08.149Z,10.27
2019-03-30T01:20:37.706Z,9.47
2019-03-30T01:23:07.285Z,9.40
2019-03-30T01:25:36.799Z,9.27
2019-03-30T01:28:06.243Z,9.50
2019-03-30T01:30:35.758Z,9.40
2019-03-30T01:33:05.434Z,9.60
2019-03-30T01:35:34.901Z,9.07
2019-03-30T01:38:04.243Z,9.10
2019-03-30T01:40:33.743Z,9.43
2019-03-30T01:43:03.277Z,10.00
2019-03-30T01:45:32.718Z,9.47
2019-03-30T01:48:02.206Z,9.33
2019-03-30T01:50:31.641Z,10.37
2019-03-30T01:53:01.045Z,8.53
2019-03-30T01:55:30.454Z,10.27
2019-03-30T01:57:59.770Z,11.03
2019-03-30T02:00:29.285Z,11.73
2019-03-30T02:02:58.757Z,10.27
2019-03-30T02:05:28.271Z,10.67
2019-03-30T02:07:57.850Z,10.60
2019-03-30T02:10:46.238Z,10.83
2019-03-30T02:13:15.883Z,10.37
2019-03-30T02:15:45.547Z,10.33
2019-03-30T02:18:14.942Z,10.43
2019-03-30T02:20:45.590Z,10.97
2019-03-30T02:23:15.376Z,11.63
2019-03-30T02:25:44.965Z,11.87
2019-03-30T02:28:14.526Z,10.47
2019-03-30T02:30:44.081Z,10.83
2019-03-30T02:33:13.564Z,10.57
2019-03-30T02:35:43.374Z,10.72
2019-03-30T02:38:13.706Z,10.00
2019-03-30T02:40:43.167Z,10.53
2019-03-30T02:43:12.668Z,10.93
2019-03-30T02:45:42.110Z,10.17
2019-03-30T02:48:11.665Z,10.47
2019-03-30T02:50:50.163Z,9.93
2019-03-30T02:53:12.495Z,10.03
2019-03-30T02:55:41.933Z,10.60
2019-03-30T02:58:11.796Z,10.10
2019-03-30T03:00:41.374Z,10.43
2019-03-30T03:03:10.819Z,10.60
2019-03-30T03:05:40.233Z,10.80
2019-03-30T03:08:09.639Z,10.00
2019-03-30T03:10:39.118Z,10.63
2019-03-30T03:13:08.531Z,10.03
2019-03-30T03:15:38.064Z,11.07
2019-03-30T03:18:07.530Z,9.97
2019-03-30T03:20:37.030Z,10.60
2019-03-30T03:23:06.549Z,10.97
2019-03-30T03:25:36.051Z,10.33
2019-03-30T03:28:05.541Z,10.83
2019-03-30T03:30:35.195Z,10.27
2019-03-30T03:33:04.635Z,12.57
2019-03-30T03:35:34.051Z,12.13
2019-03-30T03:38:03.486Z,10.23
2019-03-30T03:40:32.979Z,10.72
2019-03-30T03:43:02.455Z,10.70
2019-03-30T03:45:31.997Z,10.40
2019-03-30T03:48:01.493Z,11.33
2019-03-30T03:51:00.325Z,9.73
2019-03-30T03:53:31.201Z,10.83
2019-03-30T03:56:01.756Z,10.83
2019-03-30T03:58:36.251Z,10.60
2019-03-30T04:01:05.980Z,10.57
2019-03-30T04:03:36.037Z,10.03
2019-03-30T04:06:07.678Z,9.43
2019-03-30T04:08:38.824Z,10.37
2019-03-30T04:11:09.935Z,10.03
2019-03-30T04:13:40.351Z,9.77
2019-03-30T04:16:09.971Z,9.80
2019-03-30T04:18:39.415Z,10.80
2019-03-30T04:21:08.937Z,10.53
2019-03-30T04:23:38.349Z,8.97
2019-03-30T04:26:07.886Z,10.67
2019-03-30T04:28:37.303Z,9.93
2019-03-30T04:31:06.809Z,9.53
2019-03-30T04:33:36.170Z,9.87
2019-03-30T04:36:05.490Z,10.87
2019-03-30T04:38:34.991Z,10.40
2019-03-30T04:41:04.579Z,9.93
2019-03-30T04:43:33.930Z,9.67
2019-03-30T04:46:03.351Z,9.40
2019-03-30T04:48:32.747Z,9.87
2019-03-30T04:51:02.230Z,9.87
2019-03-30T04:53:31.641Z,11.80
2019-03-30T04:56:00.985Z,10.60
2019-03-30T04:58:30.365Z,10.20
2019-03-30T05:00:59.952Z,12.53
2019-03-30T05:03:29.467Z,10.83
2019-03-30T05:05:58.903Z,11.03
2019-03-30T05:08:28.233Z,10.70
2019-03-30T05:10:57.721Z,9.90
2019-03-30T05:13:27.118Z,10.77
2019-03-30T05:15:56.493Z,11.03
2019-03-30T05:18:25.793Z,11.15
2019-03-30T05:20:55.468Z,11.77
2019-03-30T05:23:25.011Z,10.57
2019-03-30T05:25:54.537Z,11.07
2019-03-30T05:28:24.058Z,11.03
2019-03-30T05:30:53.470Z,11.50
2019-03-30T05:33:22.877Z,11.67
2019-03-30T05:35:52.304Z,10.87
2019-03-30T05:38:21.606Z,11.43
2019-03-30T05:40:51.030Z,11.23
2019-03-30T05:43:20.546Z,11.70
2019-03-30T05:45:50.174Z,11.75
2019-03-30T05:48:19.620Z,10.07
2019-03-30T05:50:49.132Z,9.83
2019-03-30T05:53:18.508Z,10.00
2019-03-30T05:55:47.889Z,9.27
2019-03-30T05:58:17.318Z,10.03
2019-03-30T06:00:46.839Z,10.33
2019-03-30T06:03:16.651Z,10.87
2019-03-30T06:05:46.219Z,10.97
2019-03-30T06:08:15.738Z,10.37
2019-03-30T06:10:45.148Z,10.30
2019-03-30T06:13:14.545Z,9.10
2019-03-30T06:15:44.080Z,11.03
2019-03-30T06:18:13.549Z,10.00
2019-03-30T06:20:43.043Z,11.17
2019-03-30T06:23:12.621Z,9.30
2019-03-30T06:25:42.272Z,10.13
2019-03-30T06:28:11.742Z,10.13
2019-03-30T06:30:41.154Z,9.77
2019-03-30T06:33:10.579Z,10.23
2019-03-30T06:35:39.953Z,9.48
2019-03-30T06:38:09.565Z,9.90
2019-03-30T06:40:39.059Z,9.57
2019-03-30T06:43:08.388Z,10.23
2019-03-30T06:45:37.967Z,9.83
2019-03-30T06:48:07.427Z,9.37
2019-03-30T06:50:36.950Z,9.17
2019-03-30T06:53:06.368Z,8.93
2019-03-30T06:55:35.811Z,10.13
2019-03-30T06:58:05.338Z,9.43
2019-03-30T07:00:35.640Z,10.90
2019-03-30T07:03:06.919Z,10.23
2019-03-30T07:05:43.831Z,8.80
2019-03-30T07:08:15.229Z,9.13
2019-03-30T07:10:46.656Z,9.27
2019-03-30T07:13:16.762Z,10.58
2019-03-30T07:15:52.785Z,9.83
2019-03-30T07:18:22.362Z,9.37
2019-03-30T07:20:51.699Z,9.20
2019-03-30T07:23:21.223Z,10.15
2019-03-30T07:25:50.683Z,10.40
2019-03-30T07:28:20.123Z,10.03
2019-03-30T07:30:49.746Z,10.20
2019-03-30T07:33:19.271Z,10.87
2019-03-30T07:35:49.031Z,11.63
2019-03-30T07:38:18.493Z,10.50
2019-03-30T07:40:48.012Z,10.83
2019-03-30T07:43:17.512Z,11.20
2019-03-30T07:45:47.099Z,10.87
2019-03-30T07:48:16.528Z,11.40
2019-03-30T07:50:45.942Z,11.10
2019-03-30T07:53:26.393Z,11.03
2019-03-30T07:55:46.658Z,10.37
2019-03-30T07:58:16.101Z,11.07
2019-03-30T08:00:45.609Z,10.57
2019-03-30T08:03:15.203Z,11.18
2019-03-30T08:05:44.835Z,11.63
2019-03-30T08:08:14.226Z,11.50
2019-03-30T08:10:43.751Z,12.40
2019-03-30T08:13:13.270Z,12.57
2019-03-30T08:15:42.778Z,11.67
2019-03-30T08:18:12.277Z,14.07
2019-03-30T08:20:41.906Z,13.13
2019-03-30T08:23:11.643Z,13.23
2019-03-30T08:25:40.943Z,14.17
2019-03-30T08:28:10.352Z,12.90
2019-03-30T08:30:39.826Z,11.57
2019-03-30T08:33:09.454Z,12.23
2019-03-30T08:35:39.103Z,12.50
2019-03-30T08:38:08.637Z,12.23
2019-03-30T08:40:38.150Z,12.67
2019-03-30T08:43:07.595Z,12.53
2019-03-30T08:45:37.009Z,12.13
2019-03-30T08:48:06.579Z,12.90
2019-03-30T08:50:36.179Z,11.83
2019-03-30T08:53:05.732Z,13.33
2019-03-30T08:55:35.129Z,15.40
2019-03-30T08:58:05.219Z,14.53
2019-03-30T09:00:42.501Z,14.47
2019-03-30T09:03:12.074Z,13.83
2019-03-30T09:05:41.968Z,15.60
2019-03-30T09:08:11.533Z,14.60
2019-03-30T09:10:41.125Z,13.83
2019-03-30T09:13:10.691Z,13.80
2019-03-30T09:15:40.189Z,14.63
2019-03-30T09:18:09.744Z,14.70
2019-03-30T09:20:39.217Z,14.30
2019-03-30T09:23:08.649Z,15.00
2019-03-30T09:25:37.996Z,17.03
2019-03-30T09:28:07.509Z,16.37
2019-03-30T09:30:36.948Z,16.83
2019-03-30T09:33:06.367Z,16.00
2019-03-30T09:35:35.983Z,16.57
2019-03-30T09:38:06.385Z,16.63
2019-03-30T09:40:36.112Z,17.40
2019-03-30T09:43:05.548Z,16.07
2019-03-30T09:45:34.990Z,16.50
2019-03-30T09:48:04.457Z,17.37
2019-03-30T09:50:33.844Z,18.27
2019-03-30T09:53:03.455Z,15.93
2019-03-30T09:55:32.990Z,16.93
2019-03-30T09:58:02.500Z,16.10
2019-03-30T10:00:31.975Z,15.67
2019-03-30T10:03:01.441Z,17.00
2019-03-30T10:05:30.868Z,16.50
2019-03-30T10:08:00.290Z,20.70
2019-03-30T10:10:29.972Z,17.23
2019-03-30T10:13:00.324Z,16.32
2019-03-30T10:15:29.828Z,15.33
2019-03-30T10:17:59.412Z,16.03
2019-03-30T10:20:29.667Z,17.30
2019-03-30T10:22:59.057Z,14.33
2019-03-30T10:25:28.568Z,15.87
2019-03-30T10:27:58.318Z,16.57
2019-03-30T10:30:27.836Z,16.17
2019-03-30T10:32:57.410Z,19.00
2019-03-30T10:35:26.848Z,17.57
2019-03-30T10:37:56.304Z,17.17
2019-03-30T10:40:25.776Z,16.13
2019-03-30T10:42:55.263Z,16.60
2019-03-30T10:45:24.700Z,15.30
2019-03-30T10:47:54.302Z,15.07
2019-03-30T10:50:23.727Z,15.60
2019-03-30T10:52:53.317Z,15.73
2019-03-30T10:55:22.825Z,17.57
2019-03-30T10:57:52.427Z,13.67
2019-03-30T11:00:38.744Z,12.87
2019-03-30T11:03:08.493Z,14.63
2019-03-30T11:05:37.980Z,14.30
2019-03-30T11:08:07.588Z,13.73
2019-03-30T11:10:37.088Z,14.13
2019-03-30T11:13:06.645Z,14.10
2019-03-30T11:15:36.151Z,14.40
2019-03-30T11:18:05.702Z,14.90
2019-03-30T11:20:35.222Z,13.87
2019-03-30T11:23:05.552Z,14.50
2019-03-30T11:25:34.968Z,14.03
2019-03-30T11:28:04.535Z,15.47
2019-03-30T11:30:34.015Z,14.77
2019-03-30T11:33:03.566Z,14.20
2019-03-30T11:35:33.006Z,14.27
2019-03-30T11:38:02.568Z,14.73
2019-03-30T11:40:32.096Z,14.07
2019-03-30T11:43:01.734Z,13.67
2019-03-30T11:45:31.112Z,13.80
2019-03-30T11:48:00.607Z,13.93
2019-03-30T11:50:30.201Z,13.47
2019-03-30T11:52:59.767Z,14.67
2019-03-30T11:55:29.407Z,14.67
2019-03-30T11:57:59.018Z,13.37
2019-03-30T12:00:28.439Z,14.90
2019-03-30T12:02:58.016Z,14.17
2019-03-30T12:05:27.520Z,13.50
2019-03-30T12:07:57.213Z,14.23
2019-03-30T12:10:26.768Z,13.63
2019-03-30T12:12:56.269Z,14.70
2019-03-30T12:15:25.850Z,13.37
2019-03-30T12:17:55.377Z,14.63
2019-03-30T12:20:25.542Z,15.57
2019-03-30T12:22:55.003Z,16.00
2019-03-30T12:25:34.937Z,15.90
2019-03-30T12:27:55.759Z,14.90
2019-03-30T12:30:25.332Z,15.93
2019-03-30T12:32:54.963Z,15.50
2019-03-30T12:35:24.483Z,16.17
2019-03-30T12:37:53.938Z,15.57
2019-03-30T12:40:23.453Z,25.10
2019-03-30T12:42:52.861Z,15.37
2019-03-30T12:45:22.479Z,16.63
2019-03-30T12:47:52.018Z,14.53
2019-03-30T12:50:21.589Z,14.83
2019-03-30T12:52:51.114Z,15.53
2019-03-30T12:55:20.581Z,13.07
2019-03-30T12:57:49.975Z,14.47
2019-03-30T13:00:19.732Z,16.03
2019-03-30T13:02:49.135Z,17.30
2019-03-30T13:05:18.644Z,14.03
2019-03-30T13:07:48.160Z,14.47
2019-03-30T13:10:17.937Z,13.30
2019-03-30T13:12:47.576Z,11.93
2019-03-30T13:15:17.291Z,12.33
2019-03-30T13:17:46.717Z,13.10
2019-03-30T13:20:16.521Z,14.07
2019-03-30T13:22:46.214Z,12.60
2019-03-30T13:25:15.823Z,12.93
2019-03-30T13:27:45.387Z,12.77
2019-03-30T13:30:15.470Z,13.03
2019-03-30T13:32:44.918Z,12.23
2019-03-30T13:35:14.356Z,11.50
2019-03-30T13:37:43.813Z,9.87
2019-03-30T13:40:41.739Z,10.30
2019-03-30T13:43:11.294Z,10.97
2019-03-30T13:45:40.776Z,10.83
2019-03-30T13:48:10.280Z,10.20
2019-03-30T13:50:39.883Z,10.50
2019-03-30T13:53:09.583Z,12.30
2019-03-30T13:55:39.008Z,12.87
2019-03-30T13:58:08.508Z,11.40
2019-03-30T14:00:38.097Z,11.27
2019-03-30T14:03:07.678Z,12.50
2019-03-30T14:05:37.650Z,11.37
2019-03-30T14:08:07.308Z,11.60
2019-03-30T14:10:38.984Z,15.47
2019-03-30T14:13:08.858Z,20.05
2019-03-30T14:15:38.339Z,17.20
2019-03-30T14:18:07.702Z,15.00
2019-03-30T14:20:37.183Z,7.67
2019-03-30T14:23:06.547Z,4.85
2019-03-30T14:25:35.974Z,3.33
2019-03-30T14:28:05.834Z,3.47
2019-03-30T14:30:35.398Z,3.00
2019-03-30T14:33:04.986Z,3.17
2019-03-30T14:35:34.396Z,3.27
2019-03-30T14:38:03.844Z,2.73
2019-03-30T14:40:33.278Z,3.30
2019-03-30T14:43:02.853Z,3.17
2019-03-30T14:45:32.215Z,3.33
2019-03-30T14:48:01.775Z,2.77
2019-03-30T14:50:31.338Z,3.07
2019-03-30T14:53:00.738Z,3.17
2019-03-30T14:55:30.207Z,3.53
2019-03-30T14:57:59.569Z,2.80
2019-03-30T15:00:29.196Z,3.07
2019-03-30T15:02:59.042Z,3.00
2019-03-30T15:05:28.655Z,2.87
2019-03-30T15:07:58.126Z,3.47
2019-03-30T15:10:27.299Z,2.77
2019-03-30T15:12:56.789Z,2.50
2019-03-30T15:15:26.342Z,2.50
2019-03-30T15:17:55.841Z,2.97
2019-03-30T15:20:25.378Z,2.50
2019-03-30T15:22:55.000Z,2.23
2019-03-30T15:25:24.548Z,2.90
2019-03-30T15:27:53.931Z,2.67
2019-03-30T15:30:23.470Z,3.07
2019-03-30T15:32:53.093Z,2.30
2019-03-30T15:35:22.747Z,2.80
2019-03-30T15:37:52.082Z,2.47
2019-03-30T15:40:21.657Z,2.37
2019-03-30T15:42:51.120Z,2.90
2019-03-30T15:45:20.710Z,2.53
2019-03-30T15:47:50.207Z,2.97
2019-03-30T15:50:20.031Z,3.07
2019-03-30T15:52:49.639Z,2.50
2019-03-30T15:55:19.169Z,2.90
2019-03-30T15:57:48.541Z,2.90
2019-03-30T16:00:18.303Z,1.90
2019-03-30T16:02:47.819Z,3.07
2019-03-30T16:05:17.411Z,2.70
2019-03-30T16:07:46.878Z,2.30
2019-03-30T16:10:16.486Z,3.23
2019-03-30T16:12:45.966Z,1.87
2019-03-30T16:15:15.749Z,1.80
2019-03-30T16:17:45.346Z,2.10
2019-03-30T16:20:14.936Z,2.17
2019-03-30T16:22:45.753Z,2.05
2019-03-30T16:25:15.395Z,1.80
2019-03-30T16:27:44.846Z,2.03
2019-03-30T16:30:15.421Z,1.67
2019-03-30T16:32:44.786Z,2.63
2019-03-30T16:35:14.287Z,2.13
2019-03-30T16:37:43.792Z,2.50
2019-03-30T16:40:14.634Z,1.80
2019-03-30T16:42:47.597Z,2.00
2019-03-30T16:45:17.098Z,2.50
2019-03-30T16:47:46.549Z,2.10
2019-03-30T16:50:16.563Z,1.90
2019-03-30T16:52:46.164Z,2.30
2019-03-30T16:55:15.697Z,2.63
2019-03-30T16:57:45.226Z,1.97
2019-03-30T17:00:14.933Z,3.20
2019-03-30T17:02:44.430Z,2.50
2019-03-30T17:05:14.166Z,3.97
2019-03-30T17:07:43.795Z,3.90
2019-03-30T17:10:13.410Z,2.50
2019-03-30T17:12:42.796Z,2.70
2019-03-30T17:15:12.408Z,2.97
2019-03-30T17:17:42.066Z,3.10
2019-03-30T17:20:12.034Z,2.47
2019-03-30T17:22:41.496Z,2.57
2019-03-30T17:25:11.070Z,2.63
2019-03-30T17:27:40.723Z,1.90
2019-03-30T17:30:10.719Z,1.87
2019-03-30T17:32:40.339Z,2.20
2019-03-30T17:35:10.122Z,2.87
2019-03-30T17:37:40.488Z,2.55
2019-03-30T17:40:10.271Z,2.30
2019-03-30T17:42:39.748Z,1.50
2019-03-30T17:45:13.987Z,1.47
2019-03-30T17:47:43.375Z,2.40
2019-03-30T17:50:13.025Z,2.40
2019-03-30T17:52:42.570Z,3.47
2019-03-30T17:55:12.401Z,2.60
2019-03-30T17:57:41.831Z,5.53
2019-03-30T18:00:14.306Z,6.87
2019-03-30T18:02:43.868Z,3.60
2019-03-30T18:05:13.677Z,8.53
2019-03-30T18:07:43.254Z,2.70
2019-03-30T18:10:13.323Z,3.80
2019-03-30T18:12:42.796Z,5.73
2019-03-30T18:15:13.172Z,3.20
2019-03-30T18:17:42.662Z,3.30
2019-03-30T18:20:12.455Z,3.80
2019-03-30T18:22:42.090Z,4.20
2019-03-30T18:25:11.686Z,4.07
2019-03-30T18:27:41.295Z,3.27
2019-03-30T18:30:13.787Z,3.50
2019-03-30T18:32:43.805Z,3.53
2019-03-30T18:35:13.622Z,3.53
2019-03-30T18:37:43.279Z,4.67
2019-03-30T18:40:25.905Z,5.17
2019-03-30T18:42:55.460Z,5.87
2019-03-30T18:45:28.702Z,5.10
2019-03-30T18:48:16.703Z,5.47
2019-03-30T18:50:46.992Z,5.83
2019-03-30T18:53:17.808Z,3.80
2019-03-30T18:55:47.483Z,5.53
2019-03-30T18:58:16.982Z,4.93
2019-03-30T19:00:46.494Z,5.47
2019-03-30T19:03:15.917Z,5.47
2019-03-30T19:05:45.418Z,6.17
2019-03-30T19:08:14.964Z,5.70
2019-03-30T19:10:44.419Z,5.37
2019-03-30T19:13:13.940Z,4.93
2019-03-30T19:15:43.859Z,6.03
2019-03-30T19:18:13.481Z,5.97
2019-03-30T19:20:42.987Z,7.93
2019-03-30T19:23:12.466Z,5.60
2019-03-30T19:25:41.904Z,4.97
2019-03-30T19:28:11.507Z,7.20
2019-03-30T19:30:42.418Z,6.57
2019-03-30T19:33:12.143Z,5.47
2019-03-30T19:35:41.657Z,6.27
2019-03-30T19:38:11.171Z,6.30
2019-03-30T19:40:40.622Z,5.50
2019-03-30T19:43:10.150Z,7.10
2019-03-30T19:45:39.692Z,4.90
2019-03-30T19:48:09.121Z,5.77
2019-03-30T19:50:38.474Z,6.70
2019-03-30T19:53:08.020Z,7.07
2019-03-30T19:55:37.503Z,6.70
2019-03-30T19:58:07.058Z,7.50
2019-03-30T20:00:38.680Z,6.80
2019-03-30T20:03:07.668Z,7.10
2019-03-30T20:05:37.172Z,7.37
2019-03-30T20:08:12.344Z,7.37
2019-03-30T20:10:37.803Z,8.13
2019-03-30T20:13:09.292Z,6.73
2019-03-30T20:15:38.918Z,7.10
2019-03-30T20:18:08.408Z,6.47
2019-03-30T20:20:37.990Z,6.90
2019-03-30T20:23:07.737Z,5.17
2019-03-30T20:25:37.272Z,6.53
2019-03-30T20:28:07.029Z,5.53
2019-03-30T20:30:36.674Z,5.07
2019-03-30T20:33:06.260Z,5.50
2019-03-30T20:35:35.767Z,5.60
2019-03-30T20:38:05.388Z,5.37
2019-03-30T20:40:34.871Z,5.73
2019-03-30T20:43:04.507Z,4.83
2019-03-30T20:45:34.016Z,5.63
2019-03-30T20:48:03.542Z,8.77
2019-03-30T20:50:33.030Z,5.57
2019-03-30T20:53:02.532Z,5.60
2019-03-30T20:55:33.901Z,6.63
2019-03-30T20:58:03.257Z,8.13
2019-03-30T21:00:32.864Z,8.97
2019-03-30T21:03:02.341Z,7.13
2019-03-30T21:05:31.873Z,8.17
2019-03-30T21:08:01.448Z,7.03
2019-03-30T21:10:30.996Z,9.40
2019-03-30T21:13:00.457Z,7.90
2019-03-30T21:15:29.896Z,7.20
2019-03-30T21:17:59.424Z,8.73
2019-03-30T21:20:29.082Z,8.57
2019-03-30T21:22:58.612Z,8.20
2019-03-30T21:25:28.186Z,6.90
2019-03-30T21:27:57.722Z,5.87
2019-03-30T21:30:27.241Z,5.87
2019-03-30T21:32:56.668Z,6.53
2019-03-30T21:35:26.169Z,6.10
2019-03-30T21:37:58.456Z,6.37
2019-03-30T21:40:26.664Z,6.73
2019-03-30T21:42:56.392Z,7.53
2019-03-30T21:45:25.946Z,7.87
2019-03-30T21:47:55.358Z,6.70
2019-03-30T21:50:24.825Z,7.10
2019-03-30T21:52:54.371Z,7.10
2019-03-30T21:55:23.807Z,6.97
2019-03-30T21:57:53.211Z,9.87
2019-03-30T22:00:41.280Z,8.83
2019-03-30T22:03:10.962Z,10.40
2019-03-30T22:05:40.554Z,8.83
2019-03-30T22:08:10.497Z,7.37
2019-03-30T22:10:39.965Z,7.83
2019-03-30T22:13:09.470Z,7.20
2019-03-30T22:15:38.979Z,7.33
2019-03-30T22:18:08.528Z,6.78
2019-03-30T22:20:38.034Z,8.23
2019-03-30T22:23:07.648Z,6.75
2019-03-30T22:25:37.312Z,7.83
2019-03-30T22:28:06.864Z,8.57
2019-03-30T22:30:36.383Z,8.13
2019-03-30T22:33:05.875Z,8.97
2019-03-30T22:35:35.266Z,7.77
2019-03-30T22:38:04.761Z,7.60
2019-03-30T22:40:34.294Z,9.20
2019-03-30T22:43:03.899Z,9.40
2019-03-30T22:45:33.558Z,9.90
2019-03-30T22:48:03.012Z,12.17
2019-03-30T22:50:32.495Z,8.50
2019-03-30T22:53:02.142Z,8.27
2019-03-30T22:55:31.784Z,8.53
2019-03-30T22:58:01.212Z,7.20
2019-03-30T23:00:49.080Z,7.77
2019-03-30T23:03:18.632Z,9.70
2019-03-30T23:05:48.163Z,10.20
2019-03-30T23:08:17.719Z,9.70
2019-03-30T23:10:47.190Z,9.70
2019-03-30T23:13:16.797Z,8.80
2019-03-30T23:15:46.420Z,7.40
2019-03-30T23:18:16.401Z,9.83
2019-03-30T23:20:45.788Z,7.23
2019-03-30T23:23:15.802Z,8.00
2019-03-30T23:25:45.263Z,7.87
2019-03-30T23:28:14.601Z,7.83
2019-03-30T23:30:54.303Z,7.17
2019-03-30T23:33:15.231Z,7.93
2019-03-30T23:35:44.834Z,7.40
2019-03-30T23:38:14.292Z,7.53
2019-03-30T23:40:43.765Z,8.93
2019-03-30T23:43:13.296Z,8.37
2019-03-30T23:45:42.633Z,8.30
2019-03-30T23:48:12.116Z,8.87
2019-03-30T23:50:41.616Z,9.07
2019-03-30T23:53:11.055Z,8.30
2019-03-30T23:55:40.649Z,9.23
2019-03-30T23:58:10.206Z,8.67
